Latest Weather Observations for Kurnell

IDN60801

Issued at 7:32 pm EDT Thursday 30 March 2017 (issued every 30 minutes, with the page automatically refreshed every 10 minutes)

About weather observations | Map of weather stations | Latest weather observations for NSW | Other Formats
Station Details ID: 066043 Name: KURNELL AWS Lat: -34.00 Lon: 151.21 Height: 4.0 m
Data from the previous 72 hours. | See also: Recent months for locations in New South Wales
Date/Time
EDT
Temp
°C
App
Temp
°C
Dew
Point
°C
Rel
Hum
%
Delta-T
°C
Wind Press
QNH
hPa
Press
MSL
hPa
Rain since
9am
mm
Dir  Spd
km/h
Gust
km/h
Spd
kts
Gust
kts
30/07:30pm - - - - - S 50 63 27 34 - - -
30/07:00pm - - - - - S 41 61 22 33 - - -
30/06:57pm - - - - - S 43 61 23 33 - - -
30/06:47pm - - - - - SSW 44 63 24 34 - - -
30/06:30pm - - - - - SSW 39 59 21 32 - - -
30/06:25pm - - - - - SW 35 54 19 29 - - -
30/06:00pm - - - - - SSW 46 61 25 33 - - -
30/05:30pm - - - - - SSW 43 67 23 36 - - -
30/05:00pm - - - - - S 48 69 26 37 - - -
30/04:30pm - - - - - SSW 52 70 28 38 - - -
30/04:29pm - - - - - SSW 52 70 28 38 - - -
30/04:00pm - - - - - SSW 50 63 27 34 - - -
30/03:31pm - - - - - SSW 48 72 26 39 - - -
30/03:30pm - - - - - SSW 48 63 26 34 - - -
30/03:00pm - - - - - SSW 50 72 27 39 - - -
30/02:33pm - - - - - S 44 63 24 34 - - -
30/02:30pm - - - - - S 48 63 26 34 - - -
30/02:14pm - - - - - S 43 61 23 33 - - -
30/02:00pm - - - - - S 46 61 25 33 - - -
30/01:35pm - - - - - SSW 43 63 23 34 - - -
30/01:30pm - - - - - SSW 44 59 24 32 - - -
30/01:00pm - - - - - SSW 48 69 26 37 - - -
30/12:30pm - - - - - SSW 41 59 22 32 - - -
30/12:03pm - - - - - SSW 41 65 22 35 - - -
30/12:00pm - - - - - SSW 43 59 23 32 - - -
30/11:50am - - - - - SSW 43 61 23 33 - - -
30/11:30am - - - - - SSW 37 52 20 28 - - -
30/11:00am - - - - - SSW 37 50 20 27 - - -
30/10:30am - - - - - SSW 33 52 18 28 - - -
30/10:15am - - - - - SSW 32 54 17 29 - - -
30/10:00am - - - - - SW 24 32 13 17 - - -
30/09:30am - - - - - NE 7 9 4 5 - - -
30/09:00am - - - - - NE 9 15 5 8 - - -
30/08:30am - - - - - W 7 9 4 5 - - -
30/08:00am - - - - - NNE 11 13 6 7 - - -
30/07:30am - - - - - E 9 11 5 6 - - -
30/07:00am - - - - - NE 13 15 7 8 - - -
30/06:30am - - - - - ENE 11 15 6 8 - - -
30/06:00am - - - - - E 9 11 5 6 - - -
30/05:30am - - - - - NNE 2 7 1 4 - - -
30/05:00am - - - - - NE 7 9 4 5 - - -
30/04:30am - - - - - NE 11 13 6 7 - - -
30/04:00am - - - - - NE 13 15 7 8 - - -
30/03:30am - - - - - CALM 0 0 0 0 - - -
30/03:00am - - - - - N 9 11 5 6 - - -
30/02:30am - - - - - NE 13 15 7 8 - - -
30/02:00am - - - - - NE 11 15 6 8 - - -
30/01:30am - - - - - NE 11 15 6 8 - - -
30/01:00am - - - - - NE 19 22 10 12 - - -
30/12:30am - - - - - NNE 17 17 9 9 - - -
30/12:00am - - - - - NNE 15 17 8 9 - - -
 
Date/Time
EDT
Temp
°C
App
Temp
°C
Dew
Point
°C
Rel
Hum
%
Delta-T
°C
Wind Press
QNH
hPa
Press
MSL
hPa
Rain since
9am
mm
Dir  Spd
km/h
Gust
km/h
Spd
kts
Gust
kts
29/11:30pm - - - - - NE 11 13 6 7 - - -
29/11:00pm - - - - - NNE 13 15 7 8 - - -
29/10:30pm - - - - - NE 13 15 7 8 - - -
29/10:00pm - - - - - NE 9 11 5 6 - - -
29/09:30pm - - - - - NNE 13 15 7 8 - - -
29/09:00pm - - - - - NE 20 24 11 13 - - -
29/08:30pm - - - - - NE 24 28 13 15 - - -
29/08:00pm - - - - - NE 22 28 12 15 - - -
29/07:30pm - - - - - NNE 20 26 11 14 - - -
29/07:00pm - - - - - NE 30 37 16 20 - - -
29/06:30pm - - - - - NE 35 41 19 22 - - -
29/06:00pm - - - - - NE 35 41 19 22 - - -
29/05:30pm - - - - - NE 37 43 20 23 - - -
29/05:00pm - - - - - NE 39 44 21 24 - - -
29/04:30pm - - - - - NE 35 41 19 22 - - -
29/04:00pm - - - - - NE 33 39 18 21 - - -
29/03:30pm - - - - - NE 35 39 19 21 - - -
29/03:00pm - - - - - NE 32 37 17 20 - - -
29/02:30pm - - - - - NE 32 35 17 19 - - -
29/02:00pm - - - - - ENE 30 33 16 18 - - -
29/01:30pm - - - - - ENE 26 30 14 16 - - -
29/01:00pm - - - - - NE 22 28 12 15 - - -
29/12:30pm - - - - - NE 19 22 10 12 - - -
29/12:00pm - - - - - NE 15 20 8 11 - - -
29/11:30am - - - - - NE 17 22 9 12 - - -
29/11:00am - - - - - NNE 17 20 9 11 - - -
29/10:30am - - - - - NW 2 9 1 5 - - -
29/10:00am - - - - - CALM 0 4 0 2 - - -
29/09:30am - - - - - NW 6 7 3 4 - - -
29/09:00am - - - - - NW 7 9 4 5 - - -
29/08:30am - - - - - NW 7 9 4 5 - - -
29/08:00am - - - - - NW 7 9 4 5 - - -
29/07:30am - - - - - NW 7 9 4 5 - - -
29/07:00am - - - - - NNW 7 9 4 5 - - -
29/06:30am - - - - - NNW 6 7 3 4 - - -
29/06:00am - - - - - NNW 6 9 3 5 - - -
29/05:30am - - - - - NW 7 11 4 6 - - -
29/05:00am - - - - - WNW 9 9 5 5 - - -
29/04:30am - - - - - WNW 9 11 5 6 - - -
29/04:00am - - - - - WNW 11 11 6 6 - - -
29/03:30am - - - - - WNW 11 11 6 6 - - -
29/03:00am - - - - - W 9 13 5 7 - - -
29/02:30am - - - - - WNW 11 13 6 7 - - -
29/02:00am - - - - - W 11 13 6 7 - - -
29/01:30am - - - - - WNW 13 13 7 7 - - -
29/01:00am - - - - - W 11 13 6 7 - - -
29/12:30am - - - - - W 9 11 5 6 - - -
29/12:00am - - - - - W 9 11 5 6 - - -
 
Date/Time
EDT
Temp
°C
App
Temp
°C
Dew
Point
°C
Rel
Hum
%
Delta-T
°C
Wind Press
QNH
hPa
Press
MSL
hPa
Rain since
9am
mm
Dir  Spd
km/h
Gust
km/h
Spd
kts
Gust
kts
28/11:30pm - - - - - W 11 11 6 6 - - -
28/11:00pm - - - - - W 9 9 5 5 - - -
28/10:30pm - - - - - WSW 9 11 5 6 - - -
28/10:00pm - - - - - SW 11 17 6 9 - - -
28/09:30pm - - - - - SSW 13 17 7 9 - - -
28/09:00pm - - - - - SSW 15 17 8 9 - - -
28/08:30pm - - - - - SSW 17 24 9 13 - - -
28/08:00pm - - - - - SSW 17 22 9 12 - - -
28/07:30pm - - - - - SSW 17 22 9 12 - - -
28/07:00pm - - - - - SSW 17 24 9 13 - - -
28/06:30pm - - - - - SSW 19 28 10 15 - - -
28/06:00pm - - - - - SSW 22 32 12 17 - - -
28/05:30pm - - - - - SSW 20 32 11 17 - - -
28/05:00pm - - - - - SSW 24 32 13 17 - - -
28/04:30pm - - - - - SSW 28 33 15 18 - - -
28/04:00pm - - - - - SSW 24 32 13 17 - - -
28/03:30pm - - - - - SSW 28 33 15 18 - - -
28/03:00pm - - - - - S 24 33 13 18 - - -
28/02:30pm - - - - - S 24 33 13 18 - - -
28/02:00pm - - - - - S 24 33 13 18 - - -
28/01:30pm - - - - - SSW 26 33 14 18 - - -
28/01:00pm - - - - - S 26 33 14 18 - - -
28/12:30pm - - - - - SSW 28 35 15 19 - - -
28/12:00pm - - - - - SSW 28 35 15 19 - - -
28/11:30am - - - - - SSW 26 35 14 19 - - -
28/11:00am - - - - - SSW 28 35 15 19 - - -
28/10:30am - - - - - SSW 30 35 16 19 - - -
28/10:00am - - - - - SSW 24 32 13 17 - - -
28/09:30am - - - - - SSW 32 39 17 21 - - -
28/09:00am - - - - - SSW 30 37 16 20 - - -
28/08:30am - - - - - SSW 33 43 18 23 - - -
28/08:00am - - - - - SSW 35 50 19 27 - - -
28/07:30am - - - - - SSW 39 54 21 29 - - -
28/07:00am - - - - - SSW 41 54 22 29 - - -
28/06:37am - - - - - SSW 41 59 22 32 - - -
28/06:30am - - - - - SSW 41 57 22 31 - - -
28/06:02am - - - - - SSW 41 59 22 32 - - -
28/06:00am - - - - - SSW 39 54 21 29 - - -
28/05:42am - - - - - SSW 43 61 23 33 - - -
28/05:30am - - - - - SSW 43 57 23 31 - - -
28/05:00am - - - - - SSW 41 54 22 29 - - -
28/04:30am - - - - - SSW 37 48 20 26 - - -
28/04:00am - - - - - SSW 33 46 18 25 - - -
28/03:30am - - - - - SSW 30 41 16 22 - - -
28/03:26am - - - - - SSW 24 41 13 22 - - -
28/03:00am - - - - - SW 13 17 7 9 - - -
28/02:30am - - - - - NNW 4 7 2 4 - - -
28/02:00am - - - - - N 7 11 4 6 - - -
28/01:30am - - - - - NE 15 17 8 9 - - -
28/01:00am - - - - - NNE 9 9 5 5 - - -
28/12:30am - - - - - CALM 0 7 0 4 - - -
28/12:00am - - - - - NNE 13 15 7 8 - - -
 
Date/Time
EDT
Temp
°C
App
Temp
°C
Dew
Point
°C
Rel
Hum
%
Delta-T
°C
Wind Press
QNH
hPa
Press
MSL
hPa
Rain since
9am
mm
Dir  Spd
km/h
Gust
km/h
Spd
kts
Gust
kts
27/11:30pm - - - - - N 15 17 8 9 - - -
27/11:00pm - - - - - NNE 17 20 9 11 - - -
27/10:30pm - - - - - NNE 20 26 11 14 - - -
27/10:00pm - - - - - NNE 28 33 15 18 - - -
27/09:30pm - - - - - NNE 28 37 15 20 - - -
27/09:00pm - - - - - NNE 33 41 18 22 - - -
27/08:30pm - - - - - NNE 35 44 19 24 - - -
27/08:00pm - - - - - NNE 33 44 18 24 - - -

Other Formats:

Comma delimited format used in spreadsheet applications
http://www.bom.gov.au/fwo/IDN60801/IDN60801.95756.axf

JavaScript Object Notation format (JSON) in row-major order
http://www.bom.gov.au/fwo/IDN60801/IDN60801.95756.json